createdAt,value
2017-08-06T00:01:36.978Z,6.27
2017-08-06T00:04:04.663Z,5.80
2017-08-06T00:06:32.308Z,4.40
2017-08-06T00:08:59.999Z,6.07
2017-08-06T00:11:28.415Z,4.00
2017-08-06T00:13:56.106Z,4.30
2017-08-06T00:16:23.754Z,8.13
2017-08-06T00:18:51.447Z,4.30
2017-08-06T00:21:19.092Z,4.33
2017-08-06T00:23:46.787Z,4.77
2017-08-06T00:26:15.207Z,6.37
2017-08-06T00:28:42.850Z,8.47
2017-08-06T00:31:10.541Z,4.57
2017-08-06T00:33:38.184Z,6.00
2017-08-06T00:36:05.871Z,4.83
2017-08-06T00:38:33.520Z,6.13
2017-08-06T00:41:01.214Z,9.33
2017-08-06T00:43:29.639Z,6.23
2017-08-06T00:45:57.331Z,13.00
2017-08-06T00:48:24.983Z,9.87
2017-08-06T00:50:52.666Z,6.80
2017-08-06T00:53:21.084Z,6.00
2017-08-06T00:55:48.775Z,6.50
2017-08-06T00:58:16.424Z,7.53
2017-08-06T01:00:44.142Z,5.00
2017-08-06T01:03:11.785Z,4.83
2017-08-06T01:05:40.243Z,5.03
2017-08-06T01:08:07.894Z,4.37
2017-08-06T01:10:35.579Z,6.13
2017-08-06T01:13:03.995Z,8.93
2017-08-06T01:15:31.681Z,7.60
2017-08-06T01:17:59.327Z,5.23
2017-08-06T01:20:27.019Z,6.90
2017-08-06T01:22:54.670Z,6.50
2017-08-06T01:25:22.360Z,5.70
2017-08-06T01:27:50.779Z,8.70
2017-08-06T01:30:18.474Z,9.80
2017-08-06T01:32:46.131Z,5.83
2017-08-06T01:35:13.796Z,8.80
2017-08-06T01:37:41.488Z,5.37
2017-08-06T01:40:09.162Z,7.20
2017-08-06T01:42:36.863Z,6.07
2017-08-06T01:45:04.549Z,10.13
2017-08-06T01:47:33.048Z,7.90
2017-08-06T01:50:00.735Z,9.90
2017-08-06T01:52:28.438Z,6.47
2017-08-06T01:54:56.107Z,5.97
2017-08-06T01:57:24.613Z,7.23
2017-08-06T01:59:52.279Z,9.90
2017-08-06T02:02:19.971Z,6.43
2017-08-06T02:04:47.620Z,5.37
2017-08-06T02:07:15.317Z,5.77
2017-08-06T02:09:42.968Z,9.43
2017-08-06T02:12:10.666Z,6.57
2017-08-06T02:14:38.316Z,8.70
2017-08-06T02:17:06.015Z,6.13
2017-08-06T02:19:33.666Z,8.17
2017-08-06T02:22:01.351Z,7.50
2017-08-06T02:24:29.009Z,11.63
2017-08-06T02:26:57.003Z,6.47
2017-08-06T02:29:25.424Z,6.33
2017-08-06T02:31:53.147Z,8.73
2017-08-06T02:34:21.563Z,10.13
2017-08-06T02:36:49.270Z,6.83
2017-08-06T02:39:16.928Z,9.77
2017-08-06T02:41:44.583Z,8.17
2017-08-06T02:44:12.275Z,11.43
2017-08-06T02:46:39.935Z,6.87
2017-08-06T02:49:07.627Z,7.77
2017-08-06T02:51:35.276Z,7.30
2017-08-06T02:54:02.971Z,7.67
2017-08-06T02:56:30.620Z,9.17
2017-08-06T02:58:58.307Z,6.93
2017-08-06T03:01:26.733Z,6.57
2017-08-06T03:03:54.426Z,6.60
2017-08-06T03:06:22.072Z,7.00
2017-08-06T03:08:49.762Z,8.40
2017-08-06T03:11:17.410Z,7.70
2017-08-06T03:13:45.118Z,7.50
2017-08-06T03:16:12.767Z,8.73
2017-08-06T03:18:40.463Z,6.97
2017-08-06T03:21:08.110Z,9.00
2017-08-06T03:23:35.795Z,7.90
2017-08-06T03:26:03.443Z,8.77
2017-08-06T03:28:31.138Z,7.67
2017-08-06T03:30:58.791Z,9.77
2017-08-06T03:33:26.486Z,12.57
2017-08-06T03:35:54.170Z,8.23
2017-08-06T03:38:22.629Z,9.77
2017-08-06T03:40:50.350Z,11.70
2017-08-06T03:43:19.089Z,9.47
2017-08-06T03:45:50.483Z,7.97
2017-08-06T03:48:20.229Z,7.43
2017-08-06T03:50:51.403Z,8.27
2017-08-06T03:53:19.931Z,7.70
2017-08-06T03:55:50.673Z,10.30
2017-08-06T03:58:20.092Z,9.07
2017-08-06T04:00:49.716Z,10.17
2017-08-06T04:03:19.653Z,9.37
2017-08-06T04:05:49.570Z,8.30
2017-08-06T04:08:18.253Z,9.50
2017-08-06T04:10:46.974Z,14.47
2017-08-06T04:13:15.555Z,10.77
2017-08-06T04:15:44.731Z,10.83
2017-08-06T04:18:13.484Z,11.73
2017-08-06T04:20:43.959Z,9.30
2017-08-06T04:23:12.467Z,11.63
2017-08-06T04:25:40.164Z,8.20
2017-08-06T04:28:07.823Z,10.30
2017-08-06T04:30:35.514Z,11.13
2017-08-06T04:33:03.176Z,14.57
2017-08-06T04:35:30.870Z,18.03
2017-08-06T04:37:58.530Z,11.73
2017-08-06T04:40:26.227Z,8.93
2017-08-06T04:42:53.882Z,10.47
2017-08-06T04:45:21.574Z,10.83
2017-08-06T04:47:49.223Z,17.07
2017-08-06T04:50:16.924Z,13.10
2017-08-06T04:52:44.583Z,10.63
2017-08-06T04:55:12.242Z,10.27
2017-08-06T04:57:39.944Z,11.30
2017-08-06T05:00:07.600Z,14.53
2017-08-06T05:02:35.308Z,12.80
2017-08-06T05:05:02.962Z,11.20
2017-08-06T05:07:30.687Z,10.33
2017-08-06T05:09:59.447Z,12.67
2017-08-06T05:12:28.644Z,11.07
2017-08-06T05:14:57.519Z,9.33
2017-08-06T05:17:27.756Z,7.47
2017-08-06T05:19:58.097Z,10.30
2017-08-06T05:22:26.562Z,9.50
2017-08-06T05:24:54.220Z,10.67
2017-08-06T05:27:21.943Z,10.87
2017-08-06T05:29:49.640Z,7.80
2017-08-06T05:32:17.488Z,9.73
2017-08-06T05:34:45.138Z,15.20
2017-08-06T05:37:12.842Z,10.40
2017-08-06T05:39:41.267Z,10.80
2017-08-06T05:42:08.975Z,9.37
2017-08-06T05:44:36.631Z,13.47
2017-08-06T05:47:04.335Z,10.20
2017-08-06T05:49:31.998Z,9.93
2017-08-06T05:51:59.698Z,10.40
2017-08-06T05:54:27.359Z,13.53
2017-08-06T05:56:55.054Z,12.20
2017-08-06T05:59:23.471Z,10.50
2017-08-06T06:01:51.192Z,13.40
2017-08-06T06:04:18.855Z,13.03
2017-08-06T06:06:46.514Z,12.23
2017-08-06T06:09:14.215Z,12.00
2017-08-06T06:11:41.900Z,15.60
2017-08-06T06:14:09.591Z,15.57
2017-08-06T06:16:38.021Z,12.37
2017-08-06T06:19:05.723Z,13.77
2017-08-06T06:21:34.153Z,10.27
2017-08-06T06:24:01.848Z,11.47
2017-08-06T06:26:29.511Z,11.50
2017-08-06T06:28:57.980Z,9.47
2017-08-06T06:31:25.630Z,10.67
2017-08-06T06:33:53.335Z,10.03
2017-08-06T06:36:20.983Z,10.03
2017-08-06T06:38:48.674Z,12.13
2017-08-06T06:41:16.327Z,12.40
2017-08-06T06:43:44.029Z,13.63
2017-08-06T06:46:11.688Z,14.10
2017-08-06T06:48:39.396Z,12.33
2017-08-06T06:51:07.062Z,11.27
2017-08-06T06:53:34.765Z,10.50
2017-08-06T06:56:02.431Z,12.53
2017-08-06T06:58:30.123Z,11.50
2017-08-06T07:00:57.779Z,10.10
2017-08-06T07:03:25.490Z,10.23
2017-08-06T07:05:53.142Z,10.67
2017-08-06T07:08:20.794Z,9.40
2017-08-06T07:10:48.491Z,11.20
2017-08-06T07:13:16.153Z,10.63
2017-08-06T07:15:43.852Z,12.07
2017-08-06T07:18:11.515Z,9.93
2017-08-06T07:20:39.211Z,11.20
2017-08-06T07:23:06.864Z,11.33
2017-08-06T07:25:34.558Z,10.47
2017-08-06T07:28:03.024Z,14.67
2017-08-06T07:30:30.724Z,11.90
2017-08-06T07:32:59.143Z,13.03
2017-08-06T07:35:26.838Z,12.40
2017-08-06T07:37:55.267Z,27.77
2017-08-06T07:40:22.967Z,13.43
2017-08-06T07:42:51.396Z,10.67
2017-08-06T07:45:19.096Z,12.70
2017-08-06T07:47:46.757Z,12.10
2017-08-06T07:50:14.497Z,12.60
2017-08-06T07:52:42.158Z,12.03
2017-08-06T07:55:09.865Z,13.93
2017-08-06T07:57:37.519Z,16.30
2017-08-06T08:00:05.218Z,12.87
2017-08-06T08:02:32.883Z,13.20
2017-08-06T08:05:00.594Z,14.87
2017-08-06T08:07:28.247Z,15.47
2017-08-06T08:09:56.679Z,11.77
2017-08-06T08:12:24.379Z,13.10
2017-08-06T08:14:52.048Z,12.53
2017-08-06T08:17:19.764Z,11.73
2017-08-06T08:19:47.419Z,11.17
2017-08-06T08:22:15.119Z,11.57
2017-08-06T08:24:43.591Z,13.10
2017-08-06T08:27:11.288Z,10.47
2017-08-06T08:29:38.943Z,11.07
2017-08-06T08:32:06.644Z,16.83
2017-08-06T08:34:34.299Z,11.10
2017-08-06T08:37:01.995Z,11.23
2017-08-06T08:39:29.654Z,12.03
2017-08-06T08:41:57.391Z,11.30
2017-08-06T08:44:25.040Z,14.60
2017-08-06T08:46:52.736Z,12.30
2017-08-06T08:49:20.395Z,10.20
2017-08-06T08:51:48.855Z,10.90
2017-08-06T08:54:16.504Z,10.77
2017-08-06T08:56:44.209Z,10.53
2017-08-06T08:59:11.858Z,10.10
2017-08-06T09:01:39.591Z,8.37
2017-08-06T09:04:07.240Z,8.57
2017-08-06T09:06:34.891Z,7.70
2017-08-06T09:09:02.597Z,9.17
2017-08-06T09:11:30.251Z,8.27
2017-08-06T09:13:57.943Z,9.03
2017-08-06T09:16:25.605Z,9.07
2017-08-06T09:18:53.300Z,8.60
2017-08-06T09:21:20.951Z,7.30
2017-08-06T09:23:48.642Z,8.20
2017-08-06T09:26:16.300Z,8.20
2017-08-06T09:28:43.998Z,7.63
2017-08-06T09:31:11.651Z,8.57
2017-08-06T09:33:39.354Z,10.27
2017-08-06T09:36:07.020Z,10.00
2017-08-06T09:38:34.710Z,6.80
2017-08-06T09:41:03.130Z,7.80
2017-08-06T09:43:30.831Z,8.50
2017-08-06T09:45:58.491Z,10.13
2017-08-06T09:48:26.194Z,7.10
2017-08-06T09:50:53.847Z,9.73
2017-08-06T09:53:21.549Z,6.53
2017-08-06T09:55:49.290Z,6.23
2017-08-06T09:58:17.004Z,7.73
2017-08-06T10:00:45.423Z,6.60
2017-08-06T10:03:13.127Z,8.40
2017-08-06T10:05:40.806Z,6.97
2017-08-06T10:08:08.519Z,8.83
2017-08-06T10:10:36.175Z,6.67
2017-08-06T10:13:03.843Z,6.40
2017-08-06T10:15:31.536Z,5.33
2017-08-06T10:17:59.188Z,6.80
2017-08-06T10:20:26.884Z,7.83
2017-08-06T10:22:54.535Z,6.50
2017-08-06T10:25:22.995Z,7.10
2017-08-06T10:27:50.650Z,7.67
2017-08-06T10:30:18.340Z,6.13
2017-08-06T10:32:45.995Z,6.53
2017-08-06T10:35:13.684Z,5.67
2017-08-06T10:37:41.354Z,6.60
2017-08-06T10:40:09.042Z,8.73
2017-08-06T10:42:36.695Z,8.67
2017-08-06T10:45:04.403Z,6.00
2017-08-06T10:47:32.060Z,7.40
2017-08-06T10:49:59.756Z,6.30
2017-08-06T10:52:27.418Z,5.93
2017-08-06T10:54:55.128Z,6.17
2017-08-06T10:57:23.542Z,8.73
2017-08-06T10:59:51.236Z,5.97
2017-08-06T11:02:18.887Z,7.30
2017-08-06T11:04:46.576Z,6.10
2017-08-06T11:07:14.231Z,5.50
2017-08-06T11:09:41.924Z,7.80
2017-08-06T11:12:09.579Z,5.83
2017-08-06T11:14:37.231Z,5.67
2017-08-06T11:17:04.927Z,7.67
2017-08-06T11:19:32.584Z,7.03
2017-08-06T11:22:00.287Z,5.67
2017-08-06T11:24:27.943Z,5.43
2017-08-06T11:26:55.642Z,8.17
2017-08-06T11:29:23.295Z,5.43
2017-08-06T11:31:50.991Z,5.50
2017-08-06T11:34:18.644Z,6.20
2017-08-06T11:36:46.335Z,6.10
2017-08-06T11:39:13.991Z,8.47
2017-08-06T11:41:41.682Z,6.53
2017-08-06T11:44:09.331Z,5.37
2017-08-06T11:46:37.789Z,5.53
2017-08-06T11:49:05.443Z,5.87
2017-08-06T11:51:33.131Z,5.50
2017-08-06T11:54:01.547Z,4.80
2017-08-06T11:56:29.243Z,5.70
2017-08-06T11:58:56.891Z,5.43
2017-08-06T12:01:24.588Z,6.10
2017-08-06T12:03:53.007Z,5.60
2017-08-06T12:06:20.715Z,4.83
2017-08-06T12:08:48.367Z,6.50
2017-08-06T12:11:16.065Z,9.07
2017-08-06T12:13:43.714Z,8.23
2017-08-06T12:16:11.422Z,6.33
2017-08-06T12:18:39.078Z,4.77
2017-08-06T12:21:06.736Z,8.50
2017-08-06T12:23:34.430Z,5.50
2017-08-06T12:26:02.090Z,6.00
2017-08-06T12:28:29.784Z,5.97
2017-08-06T12:30:57.435Z,5.27
2017-08-06T12:33:25.127Z,4.73
2017-08-06T12:35:52.775Z,5.27
2017-08-06T12:38:20.467Z,5.57
2017-08-06T12:40:48.119Z,5.80
2017-08-06T12:43:15.823Z,10.00
2017-08-06T12:45:44.255Z,7.90
2017-08-06T12:48:11.950Z,5.80
2017-08-06T12:50:39.606Z,6.20
2017-08-06T12:53:07.301Z,5.20
2017-08-06T12:55:34.959Z,6.00
2017-08-06T12:58:02.656Z,8.57
2017-08-06T13:00:30.335Z,10.80
2017-08-06T13:02:58.039Z,17.57
2017-08-06T13:05:25.691Z,7.50
2017-08-06T13:07:53.388Z,5.73
2017-08-06T13:10:21.043Z,5.90
2017-08-06T13:12:48.739Z,7.03
2017-08-06T13:15:16.408Z,5.63
2017-08-06T13:17:44.863Z,8.13
2017-08-06T13:20:12.516Z,4.77
2017-08-06T13:22:40.221Z,7.20
2017-08-06T13:25:07.875Z,5.90
2017-08-06T13:27:36.293Z,5.20
2017-08-06T13:30:04.004Z,6.93
2017-08-06T13:32:32.424Z,6.00
2017-08-06T13:35:00.115Z,5.33
2017-08-06T13:37:27.766Z,5.63
2017-08-06T13:39:55.469Z,5.60
2017-08-06T13:42:23.123Z,5.47
2017-08-06T13:44:51.578Z,5.77
2017-08-06T13:47:19.236Z,5.03
2017-08-06T13:49:46.930Z,5.00
2017-08-06T13:52:14.596Z,3.80
2017-08-06T13:54:42.298Z,4.80
2017-08-06T13:57:09.961Z,4.23
2017-08-06T13:59:37.661Z,4.60
2017-08-06T14:02:06.083Z,4.73
2017-08-06T14:04:33.784Z,5.67
2017-08-06T14:07:02.205Z,4.30
2017-08-06T14:09:29.903Z,4.23
2017-08-06T14:11:57.555Z,4.67
2017-08-06T14:14:25.255Z,6.30
2017-08-06T14:16:53.680Z,4.30
2017-08-06T14:19:21.380Z,4.60
2017-08-06T14:21:49.074Z,3.60
2017-08-06T14:24:16.775Z,4.20
2017-08-06T14:26:44.428Z,10.43
2017-08-06T14:29:12.089Z,7.60
2017-08-06T14:31:39.782Z,7.13
2017-08-06T14:34:08.208Z,9.07
2017-08-06T14:36:35.899Z,5.63
2017-08-06T14:39:03.627Z,4.50
2017-08-06T14:41:31.323Z,5.10
2017-08-06T14:43:58.984Z,4.67
2017-08-06T14:46:26.679Z,4.50
2017-08-06T14:48:54.331Z,5.13
2017-08-06T14:51:22.803Z,4.53
2017-08-06T14:53:51.226Z,6.07
2017-08-06T14:56:18.915Z,8.70
2017-08-06T14:58:46.570Z,4.40
2017-08-06T15:01:14.267Z,3.60
2017-08-06T15:03:41.951Z,5.03
2017-08-06T15:06:09.651Z,4.73
2017-08-06T15:08:37.308Z,4.03
2017-08-06T15:11:05.008Z,4.03
2017-08-06T15:13:32.655Z,4.30
2017-08-06T15:16:01.111Z,6.77
2017-08-06T15:18:28.777Z,5.47
2017-08-06T15:20:56.584Z,5.50
2017-08-06T15:23:24.236Z,4.70
2017-08-06T15:25:51.923Z,4.43
2017-08-06T15:28:19.578Z,7.17
2017-08-06T15:30:47.294Z,4.17
2017-08-06T15:33:15.716Z,4.17
2017-08-06T15:35:43.368Z,4.43
2017-08-06T15:38:11.066Z,4.43
2017-08-06T15:40:38.815Z,7.50
2017-08-06T15:43:06.507Z,8.17
2017-08-06T15:45:34.938Z,6.20
2017-08-06T15:48:02.631Z,3.80
2017-08-06T15:50:30.290Z,4.70
2017-08-06T15:52:57.987Z,3.83
2017-08-06T15:55:25.644Z,3.90
2017-08-06T15:57:53.343Z,3.57
2017-08-06T16:00:20.994Z,5.43
2017-08-06T16:02:48.688Z,4.10
2017-08-06T16:05:16.343Z,3.90
2017-08-06T16:07:44.039Z,4.10
2017-08-06T16:10:11.690Z,2.70
2017-08-06T16:12:40.155Z,3.30
2017-08-06T16:15:08.579Z,4.30
2017-08-06T16:17:36.275Z,3.17
2017-08-06T16:20:03.936Z,3.40
2017-08-06T16:22:31.627Z,3.10
2017-08-06T16:25:00.047Z,3.37
2017-08-06T16:27:27.772Z,3.07
2017-08-06T16:29:55.432Z,3.73
2017-08-06T16:32:23.136Z,4.43
2017-08-06T16:34:50.790Z,3.30
2017-08-06T16:37:18.528Z,2.80
2017-08-06T16:39:46.183Z,3.07
2017-08-06T16:42:13.849Z,5.43
2017-08-06T16:44:41.543Z,6.70
2017-08-06T16:47:09.190Z,3.00
2017-08-06T16:49:36.884Z,2.93
2017-08-06T16:52:04.543Z,2.40
2017-08-06T16:54:32.238Z,3.23
2017-08-06T16:56:59.887Z,2.50
2017-08-06T16:59:27.588Z,5.20
2017-08-06T17:01:55.248Z,4.20
2017-08-06T17:04:22.938Z,4.20
2017-08-06T17:06:50.600Z,3.83
2017-08-06T17:09:18.287Z,7.60
2017-08-06T17:11:45.935Z,5.73
2017-08-06T17:14:14.387Z,6.03
2017-08-06T17:16:42.042Z,3.17
2017-08-06T17:19:09.731Z,2.70
2017-08-06T17:21:38.156Z,4.07
2017-08-06T17:24:05.851Z,3.63
2017-08-06T17:26:33.503Z,3.60
2017-08-06T17:29:01.199Z,3.03
2017-08-06T17:31:28.851Z,4.17
2017-08-06T17:33:57.310Z,5.33
2017-08-06T17:36:24.960Z,4.47
2017-08-06T17:38:52.659Z,3.60
2017-08-06T17:41:20.315Z,3.90
2017-08-06T17:43:48.032Z,3.83
2017-08-06T17:46:15.691Z,2.60
2017-08-06T17:48:43.343Z,2.50
2017-08-06T17:51:11.045Z,3.57
2017-08-06T17:53:39.467Z,4.63
2017-08-06T17:56:07.165Z,6.00
2017-08-06T17:58:34.815Z,3.10
2017-08-06T18:01:02.523Z,4.60
2017-08-06T18:03:30.188Z,3.47
2017-08-06T18:05:57.888Z,4.20
2017-08-06T18:08:25.544Z,2.93
2017-08-06T18:10:53.235Z,3.60
2017-08-06T18:13:20.892Z,3.50
2017-08-06T18:15:48.592Z,2.60
2017-08-06T18:18:16.239Z,2.80
2017-08-06T18:20:43.939Z,3.17
2017-08-06T18:23:11.597Z,4.70
2017-08-06T18:25:39.291Z,3.07
2017-08-06T18:28:07.774Z,3.80
2017-08-06T18:30:35.471Z,5.60
2017-08-06T18:33:03.192Z,4.80
2017-08-06T18:35:31.663Z,6.97
2017-08-06T18:38:00.090Z,10.60
2017-08-06T18:40:27.783Z,6.20
2017-08-06T18:42:55.438Z,5.27
2017-08-06T18:45:23.131Z,4.63
2017-08-06T18:47:50.783Z,3.50
2017-08-06T18:50:19.199Z,5.50
2017-08-06T18:52:46.915Z,2.53
2017-08-06T18:55:14.563Z,3.20
2017-08-06T18:57:42.282Z,3.13
2017-08-06T19:00:09.935Z,8.73
2017-08-06T19:02:37.641Z,11.70
2017-08-06T19:05:05.305Z,44.33
2017-08-06T19:07:33.002Z,53.13
2017-08-06T19:10:00.659Z,90.23
2017-08-06T19:12:28.354Z,53.03
2017-08-06T19:14:56.014Z,63.47
2017-08-06T19:17:23.711Z,39.47
2017-08-06T19:19:51.362Z,35.57
2017-08-06T19:22:19.060Z,44.30
2017-08-06T19:24:46.723Z,43.07
2017-08-06T19:27:14.426Z,65.90
2017-08-06T19:29:42.077Z,36.27
2017-08-06T19:32:09.779Z,29.13
2017-08-06T19:34:38.203Z,31.90
2017-08-06T19:37:05.916Z,26.53
2017-08-06T19:39:33.576Z,17.77
2017-08-06T19:42:02.049Z,10.20
2017-08-06T19:44:30.510Z,18.87
2017-08-06T19:46:58.214Z,18.30
2017-08-06T19:49:25.873Z,12.10
2017-08-06T19:51:53.639Z,21.97
2017-08-06T19:54:21.299Z,18.60
2017-08-06T19:56:48.955Z,14.70
2017-08-06T19:59:18.947Z,17.67
2017-08-06T20:01:46.620Z,29.43
2017-08-06T20:04:14.363Z,23.83
2017-08-06T20:06:42.786Z,28.90
2017-08-06T20:09:10.487Z,40.70
2017-08-06T20:11:38.142Z,19.77
2017-08-06T20:14:05.840Z,23.37
2017-08-06T20:16:33.488Z,22.70
2017-08-06T20:19:01.189Z,29.73
2017-08-06T20:21:28.850Z,17.23
2017-08-06T20:23:56.548Z,27.67
2017-08-06T20:26:24.207Z,19.50
2017-08-06T20:28:51.899Z,19.73
2017-08-06T20:31:19.554Z,14.77
2017-08-06T20:33:47.251Z,18.97
2017-08-06T20:36:14.907Z,28.10
2017-08-06T20:38:42.602Z,20.37
2017-08-06T20:41:10.265Z,15.90
2017-08-06T20:43:37.965Z,15.63
2017-08-06T20:46:05.619Z,19.47
2017-08-06T20:48:33.320Z,24.43
2017-08-06T20:51:00.986Z,19.60
2017-08-06T20:53:28.693Z,11.00
2017-08-06T20:55:56.351Z,9.90
2017-08-06T20:58:24.832Z,16.10
2017-08-06T21:00:52.491Z,14.13
2017-08-06T21:03:20.143Z,4.93
2017-08-06T21:05:48.602Z,18.60
2017-08-06T21:08:16.250Z,7.50
2017-08-06T21:10:43.943Z,9.43
2017-08-06T21:13:12.362Z,8.40
2017-08-06T21:15:40.060Z,7.27
2017-08-06T21:18:07.711Z,5.80
2017-08-06T21:20:35.402Z,6.33
2017-08-06T21:23:04.555Z,5.40
2017-08-06T21:25:32.252Z,5.13
2017-08-06T21:28:00.667Z,8.10
2017-08-06T21:30:28.359Z,11.10
2017-08-06T21:32:56.019Z,7.57
2017-08-06T21:35:23.711Z,7.57
2017-08-06T21:37:52.127Z,8.60
2017-08-06T21:40:19.819Z,12.20
2017-08-06T21:42:48.366Z,10.20
2017-08-06T21:45:16.070Z,13.60
2017-08-06T21:47:43.728Z,10.87
2017-08-06T21:50:11.422Z,9.80
2017-08-06T21:52:39.080Z,13.67
2017-08-06T21:55:06.778Z,9.60
2017-08-06T21:57:34.433Z,11.67
2017-08-06T22:00:02.150Z,9.10
2017-08-06T22:02:29.799Z,8.00
2017-08-06T22:04:58.279Z,4.60
2017-08-06T22:07:26.699Z,6.67
2017-08-06T22:09:54.351Z,5.60
2017-08-06T22:12:22.059Z,12.87
2017-08-06T22:14:49.708Z,6.07
2017-08-06T22:17:17.395Z,7.53
2017-08-06T22:19:45.815Z,5.63
2017-08-06T22:22:13.507Z,5.83
2017-08-06T22:24:41.159Z,5.60
2017-08-06T22:27:08.859Z,6.23
2017-08-06T22:29:36.506Z,7.33
2017-08-06T22:32:04.970Z,6.67
2017-08-06T22:34:32.624Z,6.30
2017-08-06T22:37:00.315Z,5.63
2017-08-06T22:39:28.726Z,9.90
2017-08-06T22:41:56.435Z,7.90
2017-08-06T22:44:24.854Z,7.83
2017-08-06T22:46:52.548Z,10.87
2017-08-06T22:49:20.200Z,5.03
2017-08-06T22:51:47.891Z,10.00
2017-08-06T22:54:16.327Z,8.63
2017-08-06T22:56:44.018Z,7.90
2017-08-06T22:59:11.672Z,9.47
2017-08-06T23:01:39.376Z,7.43
2017-08-06T23:04:07.039Z,10.37
2017-08-06T23:06:34.736Z,7.23
2017-08-06T23:09:02.407Z,7.00
2017-08-06T23:11:30.099Z,6.60
2017-08-06T23:13:58.510Z,8.07
2017-08-06T23:16:26.170Z,6.93
2017-08-06T23:18:53.870Z,13.93
2017-08-06T23:21:21.526Z,6.97
2017-08-06T23:23:49.220Z,9.33
2017-08-06T23:26:16.876Z,5.57
2017-08-06T23:28:44.584Z,5.97
2017-08-06T23:31:12.239Z,6.43
2017-08-06T23:33:39.934Z,10.03
2017-08-06T23:36:07.582Z,7.70
2017-08-06T23:38:35.280Z,10.53
2017-08-06T23:41:02.930Z,5.03
2017-08-06T23:43:31.382Z,6.20
2017-08-06T23:45:59.043Z,11.50
2017-08-06T23:48:26.733Z,9.73
2017-08-06T23:50:55.147Z,6.50
2017-08-06T23:53:22.838Z,6.90
2017-08-06T23:55:50.495Z,6.50
2017-08-06T23:58:18.190Z,10.83
